createdAt,value
2018-01-13T00:01:55.577Z,59.77
2018-01-13T00:04:22.811Z,61.73
2018-01-13T00:06:50.045Z,63.07
2018-01-13T00:09:17.277Z,60.90
2018-01-13T00:11:44.508Z,61.47
2018-01-13T00:14:11.742Z,59.70
2018-01-13T00:16:38.965Z,62.63
2018-01-13T00:19:06.188Z,61.27
2018-01-13T00:21:33.964Z,64.07
2018-01-13T00:24:01.179Z,58.43
2018-01-13T00:26:28.415Z,69.23
2018-01-13T00:28:55.646Z,68.07
2018-01-13T00:31:22.873Z,70.37
2018-01-13T00:33:50.097Z,81.20
2018-01-13T00:36:17.318Z,66.97
2018-01-13T00:38:44.581Z,62.67
2018-01-13T00:41:11.816Z,63.63
2018-01-13T00:43:39.045Z,68.80
2018-01-13T00:46:06.264Z,67.90
2018-01-13T00:48:33.485Z,69.80
2018-01-13T00:51:00.705Z,67.43
2018-01-13T00:53:27.927Z,67.10
2018-01-13T00:55:55.899Z,69.60
2018-01-13T00:58:23.988Z,71.93
2018-01-13T01:00:50.884Z,69.03
2018-01-13T01:03:18.119Z,61.87
2018-01-13T01:05:45.353Z,70.77
2018-01-13T01:08:12.568Z,72.17
2018-01-13T01:10:39.784Z,66.27
2018-01-13T01:13:07.012Z,72.10
2018-01-13T01:15:34.242Z,68.87
2018-01-13T01:18:01.481Z,69.10
2018-01-13T01:20:28.705Z,70.70
2018-01-13T01:22:55.929Z,73.70
2018-01-13T01:25:23.168Z,77.67
2018-01-13T01:27:50.384Z,68.87
2018-01-13T01:30:17.622Z,80.87
2018-01-13T01:32:46.513Z,72.40
2018-01-13T01:35:13.885Z,66.90
2018-01-13T01:37:41.098Z,77.93
2018-01-13T01:40:07.996Z,69.63
2018-01-13T01:42:35.212Z,73.77
2018-01-13T01:45:02.520Z,71.90
2018-01-13T01:47:29.769Z,71.83
2018-01-13T01:49:56.984Z,72.90
2018-01-13T01:52:24.207Z,76.43
2018-01-13T01:54:51.424Z,74.83
2018-01-13T01:57:18.675Z,83.27
2018-01-13T01:59:46.558Z,66.43
2018-01-13T02:02:13.788Z,83.87
2018-01-13T02:04:41.020Z,70.23
2018-01-13T02:07:08.231Z,77.43
2018-01-13T02:09:35.660Z,70.27
2018-01-13T02:12:03.331Z,79.90
2018-01-13T02:14:30.593Z,80.60
2018-01-13T02:16:57.822Z,73.77
2018-01-13T02:19:25.053Z,75.30
2018-01-13T02:21:52.288Z,78.10
2018-01-13T02:24:19.522Z,77.40
2018-01-13T02:26:46.741Z,75.00
2018-01-13T02:29:13.972Z,80.53
2018-01-13T02:31:41.193Z,74.67
2018-01-13T02:34:08.418Z,80.10
2018-01-13T02:36:36.357Z,89.07
2018-01-13T02:39:03.068Z,71.50
2018-01-13T02:41:30.296Z,85.80
2018-01-13T02:43:57.525Z,81.93
2018-01-13T02:46:24.756Z,82.40
2018-01-13T02:48:51.986Z,85.50
2018-01-13T02:51:19.201Z,72.90
2018-01-13T02:53:48.008Z,89.97
2018-01-13T02:56:15.244Z,89.57
2018-01-13T02:58:42.469Z,80.77
2018-01-13T03:01:09.692Z,77.97
2018-01-13T03:03:36.955Z,86.10
2018-01-13T03:06:04.207Z,81.93
2018-01-13T03:08:31.443Z,89.23
2018-01-13T03:10:58.656Z,81.53
2018-01-13T03:13:25.895Z,93.53
2018-01-13T03:15:53.108Z,76.63
2018-01-13T03:18:20.341Z,85.17
2018-01-13T03:20:47.573Z,82.07
2018-01-13T03:23:14.809Z,98.50
2018-01-13T03:25:42.033Z,90.47
2018-01-13T03:28:09.255Z,87.57
2018-01-13T03:30:36.466Z,94.00
2018-01-13T03:33:03.695Z,93.63
2018-01-13T03:35:30.932Z,96.60
2018-01-13T03:37:58.300Z,95.17
2018-01-13T03:40:25.537Z,88.47
2018-01-13T03:42:52.771Z,97.80
2018-01-13T03:45:20.015Z,92.70
2018-01-13T03:47:47.239Z,93.37
2018-01-13T03:50:14.468Z,94.30
2018-01-13T03:52:41.701Z,110.83
2018-01-13T03:55:09.552Z,103.93
2018-01-13T03:57:36.797Z,95.80
2018-01-13T04:00:04.269Z,88.53
2018-01-13T04:02:31.505Z,98.80
2018-01-13T04:04:59.456Z,104.77
2018-01-13T04:07:26.672Z,95.33
2018-01-13T04:09:53.892Z,97.30
2018-01-13T04:12:21.654Z,107.23
2018-01-13T04:14:48.873Z,89.37
2018-01-13T04:17:16.101Z,87.60
2018-01-13T04:19:43.140Z,95.97
2018-01-13T04:22:10.365Z,102.33
2018-01-13T04:24:37.578Z,96.20
2018-01-13T04:27:04.793Z,83.87
2018-01-13T04:29:32.016Z,86.30
2018-01-13T04:31:59.235Z,94.63
2018-01-13T04:34:26.448Z,102.43
2018-01-13T04:36:53.669Z,95.20
2018-01-13T04:39:20.907Z,87.43
2018-01-13T04:41:48.171Z,86.57
2018-01-13T04:44:15.414Z,63.43
2018-01-13T04:46:42.629Z,93.73
2018-01-13T04:49:09.857Z,78.43
2018-01-13T04:51:37.095Z,81.43
2018-01-13T04:54:04.336Z,78.70
2018-01-13T04:56:31.557Z,81.07
2018-01-13T04:58:58.784Z,78.13
2018-01-13T05:01:26.008Z,82.60
2018-01-13T05:03:53.222Z,81.10
2018-01-13T05:06:21.850Z,78.97
2018-01-13T05:08:49.095Z,84.57
2018-01-13T05:11:16.320Z,72.20
2018-01-13T05:13:43.556Z,63.17
2018-01-13T05:16:12.337Z,64.77
2018-01-13T05:18:39.558Z,71.43
2018-01-13T05:21:06.780Z,68.60
2018-01-13T05:23:34.019Z,67.93
2018-01-13T05:26:01.246Z,62.33
2018-01-13T05:28:28.476Z,68.00
2018-01-13T05:30:55.700Z,68.30
2018-01-13T05:33:22.916Z,61.87
2018-01-13T05:35:50.148Z,69.53
2018-01-13T05:38:17.387Z,81.27
2018-01-13T05:40:44.607Z,65.87
2018-01-13T05:43:11.833Z,76.17
2018-01-13T05:45:39.074Z,71.83
2018-01-13T05:48:06.294Z,73.13
2018-01-13T05:50:33.529Z,70.83
2018-01-13T05:53:00.751Z,68.90
2018-01-13T05:55:27.983Z,82.63
2018-01-13T05:57:55.215Z,91.97
2018-01-13T06:00:22.445Z,81.77
2018-01-13T06:02:49.664Z,92.40
2018-01-13T06:05:16.889Z,81.13
2018-01-13T06:07:44.115Z,86.37
2018-01-13T06:10:11.346Z,83.50
2018-01-13T06:12:38.581Z,86.00
2018-01-13T06:15:05.799Z,89.03
2018-01-13T06:17:33.028Z,72.83
2018-01-13T06:20:01.137Z,85.80
2018-01-13T06:22:28.369Z,88.53
2018-01-13T06:24:55.594Z,87.73
2018-01-13T06:27:23.279Z,82.97
2018-01-13T06:29:50.488Z,77.97
2018-01-13T06:32:17.727Z,81.70
2018-01-13T06:34:45.629Z,80.57
2018-01-13T06:37:12.846Z,78.57
2018-01-13T06:39:40.061Z,81.43
2018-01-13T06:42:07.298Z,72.60
2018-01-13T06:44:34.532Z,83.63
2018-01-13T06:47:01.781Z,92.10
2018-01-13T06:49:29.015Z,87.87
2018-01-13T06:51:56.262Z,85.43
2018-01-13T06:54:23.481Z,78.27
2018-01-13T06:56:51.564Z,84.03
2018-01-13T06:59:18.782Z,82.07
2018-01-13T07:01:46.014Z,79.70
2018-01-13T07:04:13.260Z,95.90
2018-01-13T07:06:40.490Z,84.90
2018-01-13T07:09:07.706Z,83.43
2018-01-13T07:11:34.917Z,87.47
2018-01-13T07:14:02.148Z,82.93
2018-01-13T07:16:29.382Z,83.07
2018-01-13T07:18:56.605Z,71.20
2018-01-13T07:21:23.838Z,93.80
2018-01-13T07:23:51.056Z,69.03
2018-01-13T07:26:18.304Z,86.83
2018-01-13T07:28:45.541Z,77.87
2018-01-13T07:31:12.779Z,83.13
2018-01-13T07:33:40.716Z,96.20
2018-01-13T07:36:07.952Z,90.97
2018-01-13T07:38:35.182Z,90.90
2018-01-13T07:41:03.029Z,80.03
2018-01-13T07:43:30.253Z,82.03
2018-01-13T07:45:57.469Z,85.10
2018-01-13T07:48:24.710Z,76.83
2018-01-13T07:50:51.932Z,73.33
2018-01-13T07:53:19.168Z,84.00
2018-01-13T07:55:46.419Z,86.87
2018-01-13T07:58:13.648Z,90.70
2018-01-13T08:00:40.907Z,95.53
2018-01-13T08:03:08.130Z,85.90
2018-01-13T08:05:35.181Z,81.30
2018-01-13T08:08:02.412Z,88.77
2018-01-13T08:10:29.633Z,100.13
2018-01-13T08:12:56.855Z,92.73
2018-01-13T08:15:24.076Z,97.60
2018-01-13T08:17:51.331Z,98.77
2018-01-13T08:20:18.596Z,95.17
2018-01-13T08:22:45.860Z,85.20
2018-01-13T08:25:13.093Z,99.80
2018-01-13T08:27:40.353Z,92.90
2018-01-13T08:30:07.570Z,90.77
2018-01-13T08:32:34.819Z,81.97
2018-01-13T08:35:02.040Z,89.77
2018-01-13T08:37:29.285Z,78.43
2018-01-13T08:39:57.074Z,72.33
2018-01-13T08:42:24.292Z,91.40
2018-01-13T08:44:53.498Z,80.87
2018-01-13T08:47:20.736Z,91.17
2018-01-13T08:49:47.966Z,77.83
2018-01-13T08:52:15.197Z,74.23
2018-01-13T08:54:43.008Z,75.50
2018-01-13T08:57:11.560Z,88.43
2018-01-13T08:59:38.586Z,95.13
2018-01-13T09:02:15.539Z,91.63
2018-01-13T09:04:42.580Z,93.17
2018-01-13T09:07:11.625Z,88.73
2018-01-13T09:09:38.849Z,81.47
2018-01-13T09:12:06.076Z,80.70
2018-01-13T09:14:34.172Z,78.80
2018-01-13T09:17:01.405Z,79.67
2018-01-13T09:19:28.643Z,75.30
2018-01-13T09:21:55.860Z,70.13
2018-01-13T09:24:23.131Z,69.13
2018-01-13T09:26:50.357Z,62.80
2018-01-13T09:29:17.242Z,70.00
2018-01-13T09:31:44.459Z,70.00
2018-01-13T09:34:11.695Z,60.47
2018-01-13T09:36:38.929Z,73.60
2018-01-13T09:39:06.147Z,71.43
2018-01-13T09:41:34.912Z,59.90
2018-01-13T09:44:02.141Z,67.07
2018-01-13T09:46:29.373Z,65.57
2018-01-13T09:48:56.610Z,52.53
2018-01-13T09:51:24.022Z,59.53
2018-01-13T09:53:51.253Z,54.90
2018-01-13T09:56:18.485Z,65.10
2018-01-13T09:58:45.737Z,68.27
2018-01-13T10:01:12.961Z,59.30
2018-01-13T10:03:40.208Z,46.67
2018-01-13T10:06:09.016Z,46.07
2018-01-13T10:08:36.232Z,50.23
2018-01-13T10:11:03.468Z,44.63
2018-01-13T10:13:30.703Z,46.33
2018-01-13T10:15:57.940Z,38.27
2018-01-13T10:18:25.152Z,41.20
2018-01-13T10:20:52.372Z,38.10
2018-01-13T10:23:19.605Z,40.37
2018-01-13T10:25:46.853Z,39.97
2018-01-13T10:28:14.076Z,50.60
2018-01-13T10:30:41.539Z,41.63
2018-01-13T10:33:08.775Z,43.37
2018-01-13T10:35:36.488Z,41.47
2018-01-13T10:38:03.732Z,38.93
2018-01-13T10:40:30.945Z,40.80
2018-01-13T10:42:58.173Z,37.43
2018-01-13T10:45:25.200Z,51.53
2018-01-13T10:47:52.433Z,42.70
2018-01-13T10:50:19.685Z,43.80
2018-01-13T10:52:46.907Z,37.77
2018-01-13T10:55:14.158Z,47.27
2018-01-13T10:57:41.380Z,34.90
2018-01-13T11:00:09.183Z,41.43
2018-01-13T11:02:36.396Z,43.00
2018-01-13T11:05:03.667Z,41.23
2018-01-13T11:07:30.902Z,46.80
2018-01-13T11:09:58.134Z,46.07
2018-01-13T11:12:25.352Z,44.70
2018-01-13T11:14:52.597Z,50.30
2018-01-13T11:17:19.852Z,39.40
2018-01-13T11:19:47.096Z,64.57
2018-01-13T11:22:14.320Z,51.43
2018-01-13T11:24:42.379Z,50.23
2018-01-13T11:27:09.604Z,46.93
2018-01-13T11:29:36.847Z,54.83
2018-01-13T11:32:04.081Z,47.30
2018-01-13T11:34:31.315Z,49.57
2018-01-13T11:36:58.550Z,51.60
2018-01-13T11:39:25.772Z,46.10
2018-01-13T11:41:52.993Z,51.40
2018-01-13T11:44:20.807Z,44.37
2018-01-13T11:46:48.037Z,52.53
2018-01-13T11:49:15.257Z,49.90
2018-01-13T11:51:42.484Z,57.80
2018-01-13T11:54:09.724Z,44.30
2018-01-13T11:56:36.953Z,51.97
2018-01-13T11:59:04.176Z,47.43
2018-01-13T12:01:31.420Z,44.17
2018-01-13T12:03:58.625Z,50.80
2018-01-13T12:06:25.864Z,57.13
2018-01-13T12:08:53.653Z,49.17
2018-01-13T12:11:20.873Z,47.13
2018-01-13T12:13:48.106Z,53.87
2018-01-13T12:16:15.140Z,50.23
2018-01-13T12:18:42.352Z,43.77
2018-01-13T12:21:09.600Z,60.63
2018-01-13T12:23:36.833Z,58.10
2018-01-13T12:26:04.056Z,43.20
2018-01-13T12:28:31.289Z,42.17
2018-01-13T12:30:58.520Z,41.43
2018-01-13T12:33:25.748Z,44.93
2018-01-13T12:35:52.964Z,44.27
2018-01-13T12:38:22.156Z,53.77
2018-01-13T12:40:49.530Z,47.90
2018-01-13T12:43:16.782Z,51.47
2018-01-13T12:45:44.022Z,49.53
2018-01-13T12:48:11.981Z,44.73
2018-01-13T12:50:39.225Z,40.03
2018-01-13T12:53:06.460Z,46.77
2018-01-13T12:55:33.683Z,41.70
2018-01-13T12:58:00.910Z,50.43
2018-01-13T13:00:28.749Z,39.23
2018-01-13T13:02:56.000Z,44.30
2018-01-13T13:05:23.289Z,34.80
2018-01-13T13:07:50.509Z,34.47
2018-01-13T13:10:17.732Z,34.47
2018-01-13T13:12:44.952Z,34.00
2018-01-13T13:15:12.188Z,32.27
2018-01-13T13:17:39.426Z,34.40
2018-01-13T13:20:06.668Z,34.67
2018-01-13T13:22:33.901Z,34.30
2018-01-13T13:25:01.905Z,37.53
2018-01-13T13:27:29.128Z,36.43
2018-01-13T13:29:56.424Z,34.90
2018-01-13T13:32:23.659Z,37.57
2018-01-13T13:34:50.929Z,34.27
2018-01-13T13:37:18.149Z,37.67
2018-01-13T13:39:45.413Z,43.53
2018-01-13T13:42:12.639Z,48.87
2018-01-13T13:44:39.877Z,62.43
2018-01-13T13:47:07.097Z,70.30
2018-01-13T13:49:34.322Z,68.07
2018-01-13T13:52:01.557Z,70.43
2018-01-13T13:54:28.804Z,59.90
2018-01-13T13:56:56.035Z,68.70
2018-01-13T13:59:23.284Z,66.67
2018-01-13T14:01:50.498Z,62.37
2018-01-13T14:04:17.723Z,60.60
2018-01-13T14:06:44.959Z,66.10
2018-01-13T14:09:12.190Z,68.07
2018-01-13T14:11:39.404Z,69.83
2018-01-13T14:14:06.632Z,79.13
2018-01-13T14:16:33.876Z,83.53
2018-01-13T14:19:01.095Z,80.67
2018-01-13T14:21:28.333Z,77.20
2018-01-13T14:23:55.553Z,74.70
2018-01-13T14:26:22.788Z,69.50
2018-01-13T14:28:50.025Z,75.13
2018-01-13T14:31:17.248Z,69.63
2018-01-13T14:33:44.462Z,74.83
2018-01-13T14:36:11.692Z,79.87
2018-01-13T14:38:38.628Z,69.53
2018-01-13T14:41:05.847Z,76.17
2018-01-13T14:43:33.436Z,71.23
2018-01-13T14:46:00.677Z,86.30
2018-01-13T14:48:27.916Z,71.60
2018-01-13T14:50:55.144Z,86.57
2018-01-13T14:53:23.557Z,78.60
2018-01-13T14:55:52.000Z,62.40
2018-01-13T14:58:20.064Z,64.60
2018-01-13T15:00:50.288Z,72.80
2018-01-13T15:03:17.513Z,62.10
2018-01-13T15:05:46.721Z,63.70
2018-01-13T15:08:13.936Z,66.63
2018-01-13T15:10:41.174Z,61.57
2018-01-13T15:13:08.409Z,57.53
2018-01-13T15:15:35.656Z,50.63
2018-01-13T15:18:03.021Z,62.03
2018-01-13T15:20:30.238Z,58.03
2018-01-13T15:22:57.462Z,57.13
2018-01-13T15:25:24.677Z,49.73
2018-01-13T15:27:52.912Z,50.93
2018-01-13T15:30:20.616Z,48.70
2018-01-13T15:32:47.851Z,50.90
2018-01-13T15:35:15.460Z,53.37
2018-01-13T15:37:42.691Z,49.03
2018-01-13T15:40:09.930Z,41.90
2018-01-13T15:42:37.148Z,37.97
2018-01-13T15:45:04.398Z,35.37
2018-01-13T15:47:31.604Z,48.10
2018-01-13T15:49:59.445Z,32.83
2018-01-13T15:52:26.680Z,29.10
2018-01-13T15:54:54.503Z,27.50
2018-01-13T15:57:21.729Z,36.13
2018-01-13T15:59:49.826Z,30.67
2018-01-13T16:02:17.072Z,30.53
2018-01-13T16:04:44.316Z,27.40
2018-01-13T16:07:12.557Z,21.73
2018-01-13T16:09:39.784Z,24.30
2018-01-13T16:12:07.052Z,22.90
2018-01-13T16:14:34.650Z,28.97
2018-01-13T16:17:01.864Z,29.83
2018-01-13T16:19:29.158Z,26.50
2018-01-13T16:21:59.090Z,25.27
2018-01-13T16:24:27.934Z,29.93
2018-01-13T16:26:55.870Z,27.83
2018-01-13T16:29:23.944Z,33.63
2018-01-13T16:31:51.169Z,26.80
2018-01-13T16:34:18.810Z,18.73
2018-01-13T16:36:46.046Z,27.90
2018-01-13T16:39:13.561Z,26.93
2018-01-13T16:41:41.811Z,22.20
2018-01-13T16:44:10.361Z,23.93
2018-01-13T16:46:37.918Z,25.03
2018-01-13T16:49:05.493Z,22.63
2018-01-13T16:51:32.728Z,23.37
2018-01-13T16:53:59.947Z,29.30
2018-01-13T16:56:27.164Z,25.20
2018-01-13T16:58:54.095Z,27.53
2018-01-13T17:01:21.317Z,26.60
2018-01-13T17:03:48.540Z,32.40
2018-01-13T17:06:17.298Z,33.80
2018-01-13T17:08:44.512Z,36.20
2018-01-13T17:11:11.744Z,30.30
2018-01-13T17:13:38.957Z,32.17
2018-01-13T17:16:06.205Z,33.53
2018-01-13T17:18:33.450Z,28.80
2018-01-13T17:21:00.685Z,29.93
2018-01-13T17:23:27.971Z,29.50
2018-01-13T17:25:55.268Z,29.27
2018-01-13T17:28:22.530Z,35.13
2018-01-13T17:30:49.805Z,32.40
2018-01-13T17:33:17.037Z,34.30
2018-01-13T17:35:44.273Z,31.30
2018-01-13T17:38:11.511Z,35.60
2018-01-13T17:40:38.987Z,39.90
2018-01-13T17:43:06.228Z,37.27
2018-01-13T17:45:33.444Z,32.23
2018-01-13T17:48:00.665Z,35.60
2018-01-13T17:50:28.965Z,35.23
2018-01-13T17:52:55.930Z,39.43
2018-01-13T17:55:23.151Z,35.83
2018-01-13T17:57:50.410Z,36.50
2018-01-13T18:00:17.673Z,35.80
2018-01-13T18:02:45.069Z,39.17
2018-01-13T18:05:12.300Z,32.77
2018-01-13T18:07:39.548Z,35.23
2018-01-13T18:10:06.782Z,36.90
2018-01-13T18:12:34.008Z,35.73
2018-01-13T18:15:01.824Z,34.47
2018-01-13T18:17:29.049Z,32.17
2018-01-13T18:19:56.284Z,34.00
2018-01-13T18:22:23.557Z,37.13
2018-01-13T18:24:51.669Z,31.37
2018-01-13T18:27:18.894Z,31.30
2018-01-13T18:29:46.139Z,28.67
2018-01-13T18:32:13.924Z,28.33
2018-01-13T18:34:40.958Z,31.33
2018-01-13T18:37:08.199Z,30.53
2018-01-13T18:39:35.427Z,38.20
2018-01-13T18:42:02.709Z,31.30
2018-01-13T18:44:30.994Z,29.93
2018-01-13T18:46:58.381Z,28.50
2018-01-13T18:49:26.100Z,37.03
2018-01-13T18:51:53.358Z,29.87
2018-01-13T18:54:20.583Z,32.03
2018-01-13T18:56:47.829Z,32.97
2018-01-13T18:59:15.076Z,31.83
2018-01-13T19:01:42.307Z,26.20
2018-01-13T19:04:09.559Z,27.43
2018-01-13T19:06:36.820Z,26.50
2018-01-13T19:09:03.516Z,28.20
2018-01-13T19:11:30.793Z,26.03
2018-01-13T19:13:58.037Z,30.37
2018-01-13T19:16:25.274Z,29.60
2018-01-13T19:18:52.492Z,35.37
2018-01-13T19:21:19.720Z,28.23
2018-01-13T19:23:46.946Z,30.80
2018-01-13T19:26:14.164Z,29.13
2018-01-13T19:28:41.523Z,31.07
2018-01-13T19:31:08.782Z,31.03
2018-01-13T19:33:36.425Z,28.33
2018-01-13T19:36:04.253Z,32.50
2018-01-13T19:38:34.845Z,27.80
2018-01-13T19:41:02.249Z,31.70
2018-01-13T19:43:29.578Z,33.23
2018-01-13T19:45:56.858Z,37.03
2018-01-13T19:48:24.111Z,28.63
2018-01-13T19:50:51.344Z,28.87
2018-01-13T19:53:18.596Z,30.43
2018-01-13T19:55:45.853Z,28.00
2018-01-13T19:58:13.084Z,28.37
2018-01-13T20:00:40.313Z,28.97
2018-01-13T20:03:07.524Z,26.97
2018-01-13T20:05:34.757Z,28.47
2018-01-13T20:08:02.917Z,32.20
2018-01-13T20:10:32.135Z,25.67
2018-01-13T20:13:00.113Z,28.47
2018-01-13T20:15:27.340Z,27.63
2018-01-13T20:17:54.613Z,27.07
2018-01-13T20:20:21.845Z,25.67
2018-01-13T20:22:49.092Z,27.60
2018-01-13T20:25:16.315Z,27.23
2018-01-13T20:27:43.567Z,29.27
2018-01-13T20:30:11.492Z,30.40
2018-01-13T20:32:38.732Z,29.67
2018-01-13T20:35:05.964Z,35.83
2018-01-13T20:37:33.226Z,33.40
2018-01-13T20:40:00.472Z,26.73
2018-01-13T20:42:27.742Z,33.40
2018-01-13T20:44:55.251Z,25.60
2018-01-13T20:47:23.088Z,28.77
2018-01-13T20:49:50.320Z,29.17
2018-01-13T20:52:17.594Z,24.00
2018-01-13T20:54:44.838Z,21.37
2018-01-13T20:57:12.073Z,34.67
2018-01-13T20:59:39.488Z,30.37
2018-01-13T21:02:06.760Z,28.80
2018-01-13T21:04:33.973Z,24.63
2018-01-13T21:07:01.213Z,25.57
2018-01-13T21:09:28.440Z,26.87
2018-01-13T21:11:55.669Z,21.27
2018-01-13T21:14:22.886Z,19.90
2018-01-13T21:16:50.340Z,22.93
2018-01-13T21:19:17.580Z,14.87
2018-01-13T21:21:44.814Z,15.50
2018-01-13T21:24:12.517Z,19.07
2018-01-13T21:26:40.099Z,17.70
2018-01-13T21:29:07.324Z,19.47
2018-01-13T21:31:35.182Z,16.50
2018-01-13T21:34:04.562Z,19.13
2018-01-13T21:36:32.005Z,16.90
2018-01-13T21:38:59.577Z,18.00
2018-01-13T21:41:26.833Z,20.43
2018-01-13T21:43:54.052Z,17.33
2018-01-13T21:46:21.274Z,15.33
2018-01-13T21:48:48.876Z,21.10
2018-01-13T21:51:16.443Z,18.67
2018-01-13T21:53:44.569Z,21.13
2018-01-13T21:56:11.800Z,15.70
2018-01-13T21:58:39.032Z,24.23
2018-01-13T22:01:06.283Z,16.20
2018-01-13T22:03:34.089Z,21.10
2018-01-13T22:06:01.460Z,18.97
2018-01-13T22:08:28.665Z,15.07
2018-01-13T22:10:55.906Z,17.70
2018-01-13T22:13:23.137Z,18.07
2018-01-13T22:15:51.207Z,22.00
2018-01-13T22:18:18.437Z,15.03
2018-01-13T22:20:45.661Z,21.80
2018-01-13T22:23:14.527Z,16.67
2018-01-13T22:25:42.100Z,14.00
2018-01-13T22:28:09.341Z,20.40
2018-01-13T22:30:36.608Z,15.00
2018-01-13T22:33:03.825Z,16.47
2018-01-13T22:35:31.797Z,15.27
2018-01-13T22:37:59.885Z,16.67
2018-01-13T22:40:27.108Z,17.00
2018-01-13T22:42:54.322Z,18.67
2018-01-13T22:45:21.576Z,16.57
2018-01-13T22:47:48.852Z,15.50
2018-01-13T22:50:16.089Z,18.73
2018-01-13T22:52:43.318Z,16.10
2018-01-13T22:55:11.314Z,16.40
2018-01-13T22:57:38.653Z,15.87
2018-01-13T23:00:05.565Z,17.93
2018-01-13T23:02:32.810Z,14.97
2018-01-13T23:05:00.267Z,18.43
2018-01-13T23:07:27.500Z,15.13
2018-01-13T23:09:54.732Z,13.33
2018-01-13T23:12:21.960Z,11.20
2018-01-13T23:14:49.183Z,17.47
2018-01-13T23:17:16.959Z,16.37
2018-01-13T23:19:44.523Z,14.80
2018-01-13T23:22:11.752Z,16.77
2018-01-13T23:24:38.968Z,11.43
2018-01-13T23:27:11.717Z,9.53
2018-01-13T23:29:38.930Z,14.13
2018-01-13T23:32:06.165Z,8.97
2018-01-13T23:34:33.385Z,8.90
2018-01-13T23:37:00.620Z,14.47
2018-01-13T23:39:27.825Z,12.13
2018-01-13T23:41:55.046Z,12.87
2018-01-13T23:44:22.280Z,13.97
2018-01-13T23:46:49.512Z,12.63
2018-01-13T23:49:16.753Z,20.50
2018-01-13T23:51:43.973Z,9.60
2018-01-13T23:54:11.216Z,20.37
2018-01-13T23:56:38.446Z,14.87
2018-01-13T23:59:06.282Z,15.93
